sensor_id;sensor_type;location;lat;lon;timestamp;pressure;altitude;pressure_sealevel;temperature;humidity
10720;BME280;5411;58.386;15.560;2023-03-14T00:01:10;96278.94;;;8.49;100.00
10720;BME280;5411;58.386;15.560;2023-03-14T00:03:39;96286.94;;;8.49;100.00
10720;BME280;5411;58.386;15.560;2023-03-14T00:06:08;96280.53;;;8.50;100.00
10720;BME280;5411;58.386;15.560;2023-03-14T00:08:37;96270.38;;;8.52;100.00
10720;BME280;5411;58.386;15.560;2023-03-14T00:11:06;96286.06;;;8.53;100.00
10720;BME280;5411;58.386;15.560;2023-03-14T00:13:37;96277.50;;;8.56;100.00
10720;BME280;5411;58.386;15.560;2023-03-14T00:16:07;96288.94;;;8.57;100.00
10720;BME280;5411;58.386;15.560;2023-03-14T00:18:36;96280.38;;;8.60;100.00
10720;BME280;5411;58.386;15.560;2023-03-14T00:21:05;96273.66;;;8.63;100.00
10720;BME280;5411;58.386;15.560;2023-03-14T00:23:35;96266.19;;;8.65;100.00
10720;BME280;5411;58.386;15.560;2023-03-14T00:26:06;96255.53;;;8.65;100.00
10720;BME280;5411;58.386;15.560;2023-03-14T00:28:34;96271.50;;;8.65;100.00
10720;BME280;5411;58.386;15.560;2023-03-14T00:31:05;96264.31;;;8.65;100.00
10720;BME280;5411;58.386;15.560;2023-03-14T00:33:34;96281.28;;;8.69;100.00
10720;BME280;5411;58.386;15.560;2023-03-14T00:36:05;96271.41;;;8.70;100.00
10720;BME280;5411;58.386;15.560;2023-03-14T00:38:36;96284.72;;;8.70;100.00
10720;BME280;5411;58.386;15.560;2023-03-14T00:41:08;96270.34;;;8.71;100.00
10720;BME280;5411;58.386;15.560;2023-03-14T00:43:37;96276.44;;;8.71;100.00
10720;BME280;5411;58.386;15.560;2023-03-14T00:46:08;96278.81;;;8.73;100.00
10720;BME280;5411;58.386;15.560;2023-03-14T00:48:37;96273.50;;;8.73;100.00
10720;BME280;5411;58.386;15.560;2023-03-14T00:51:06;96280.69;;;8.72;100.00
10720;BME280;5411;58.386;15.560;2023-03-14T00:53:36;96286.53;;;8.74;100.00
10720;BME280;5411;58.386;15.560;2023-03-14T00:56:06;96289.19;;;8.74;100.00
10720;BME280;5411;58.386;15.560;2023-03-14T00:58:35;96287.84;;;8.77;100.00
10720;BME280;5411;58.386;15.560;2023-03-14T01:01:10;96287.53;;;8.78;100.00
10720;BME280;5411;58.386;15.560;2023-03-14T01:03:38;96283.78;;;8.79;100.00
10720;BME280;5411;58.386;15.560;2023-03-14T01:06:09;96290.97;;;8.79;100.00
10720;BME280;5411;58.386;15.560;2023-03-14T01:08:38;96288.00;;;8.80;100.00
10720;BME280;5411;58.386;15.560;2023-03-14T01:11:08;96285.34;;;8.80;100.00
10720;BME280;5411;58.386;15.560;2023-03-14T01:13:37;96296.81;;;8.81;100.00
10720;BME280;5411;58.386;15.560;2023-03-14T01:16:09;96289.59;;;8.81;100.00
10720;BME280;5411;58.386;15.560;2023-03-14T01:18:39;96296.50;;;8.82;100.00
10720;BME280;5411;58.386;15.560;2023-03-14T01:21:11;96300.56;;;8.80;100.00
10720;BME280;5411;58.386;15.560;2023-03-14T01:23:40;96300.56;;;8.80;100.00
10720;BME280;5411;58.386;15.560;2023-03-14T01:26:09;96300.88;;;8.78;100.00
10720;BME280;5411;58.386;15.560;2023-03-14T01:28:41;96319.19;;;8.80;100.00
10720;BME280;5411;58.386;15.560;2023-03-14T01:31:11;96319.72;;;8.82;100.00
10720;BME280;5411;58.386;15.560;2023-03-14T01:33:41;96326.91;;;8.81;100.00
10720;BME280;5411;58.386;15.560;2023-03-14T01:36:10;96318.91;;;8.81;100.00
10720;BME280;5411;58.386;15.560;2023-03-14T01:38:39;96317.34;;;8.80;100.00
10720;BME280;5411;58.386;15.560;2023-03-14T01:41:13;96319.19;;;8.80;100.00
10720;BME280;5411;58.386;15.560;2023-03-14T01:43:41;96320.59;;;8.77;100.00
10720;BME280;5411;58.386;15.560;2023-03-14T01:49:20;96314.47;;;8.77;100.00
10720;BME280;5411;58.386;15.560;2023-03-14T01:51:54;96320.09;;;8.75;100.00
10720;BME280;5411;58.386;15.560;2023-03-14T01:54:27;96327.28;;;8.75;100.00
10720;BME280;5411;58.386;15.560;2023-03-14T01:57:08;96330.25;;;8.73;100.00
10720;BME280;5411;58.386;15.560;2023-03-14T01:59:38;96355.03;;;8.74;100.00
10720;BME280;5411;58.386;15.560;2023-03-14T02:02:09;96344.38;;;8.74;100.00
10720;BME280;5411;58.386;15.560;2023-03-14T02:04:42;96328.38;;;8.74;100.00
10720;BME280;5411;58.386;15.560;2023-03-14T02:07:15;96358.19;;;8.76;100.00
10720;BME280;5411;58.386;15.560;2023-03-14T02:09:46;96341.69;;;8.74;100.00
10720;BME280;5411;58.386;15.560;2023-03-14T02:12:17;96345.16;;;8.74;100.00
10720;BME280;5411;58.386;15.560;2023-03-14T02:14:46;96363.53;;;8.76;100.00
10720;BME280;5411;58.386;15.560;2023-03-14T02:17:17;96354.44;;;8.77;100.00
10720;BME280;5411;58.386;15.560;2023-03-14T02:19:57;96358.19;;;8.76;100.00
10720;BME280;5411;58.386;15.560;2023-03-14T02:22:32;96373.09;;;8.77;100.00
10720;BME280;5411;58.386;15.560;2023-03-14T02:25:06;96366.19;;;8.76;100.00
10720;BME280;5411;58.386;15.560;2023-03-14T02:27:38;96377.34;;;8.78;100.00
10720;BME280;5411;58.386;15.560;2023-03-14T02:30:10;96375.78;;;8.77;100.00
10720;BME280;5411;58.386;15.560;2023-03-14T02:32:41;96371.53;;;8.76;100.00
10720;BME280;5411;58.386;15.560;2023-03-14T02:35:15;96372.31;;;8.76;100.00
10720;BME280;5411;58.386;15.560;2023-03-14T02:37:47;96382.47;;;8.74;100.00
10720;BME280;5411;58.386;15.560;2023-03-14T02:40:17;96383.84;;;8.72;100.00
10720;BME280;5411;58.386;15.560;2023-03-14T02:42:47;96389.44;;;8.70;100.00
10720;BME280;5411;58.386;15.560;2023-03-14T02:45:36;96388.44;;;8.66;100.00
10720;BME280;5411;58.386;15.560;2023-03-14T02:48:09;96386.06;;;8.65;100.00
10720;BME280;5411;58.386;15.560;2023-03-14T02:50:39;96386.38;;;8.63;100.00
10720;BME280;5411;58.386;15.560;2023-03-14T02:53:10;96391.69;;;8.63;100.00
10720;BME280;5411;58.386;15.560;2023-03-14T02:55:39;96403.13;;;8.64;100.00
10720;BME280;5411;58.386;15.560;2023-03-14T02:58:09;96402.34;;;8.63;100.00
10720;BME280;5411;58.386;15.560;2023-03-14T03:00:37;96409.03;;;8.61;100.00
10720;BME280;5411;58.386;15.560;2023-03-14T03:03:05;96419.19;;;8.58;100.00
10720;BME280;5411;58.386;15.560;2023-03-14T03:05:34;96408.31;;;8.55;100.00
10720;BME280;5411;58.386;15.560;2023-03-14T03:08:02;96421.13;;;8.53;100.00
10720;BME280;5411;58.386;15.560;2023-03-14T03:10:31;96413.44;;;8.51;100.00
10720;BME280;5411;58.386;15.560;2023-03-14T03:13:01;96421.72;;;8.50;100.00
10720;BME280;5411;58.386;15.560;2023-03-14T03:15:31;96417.47;;;8.49;100.00
10720;BME280;5411;58.386;15.560;2023-03-14T03:18:01;96430.56;;;8.45;100.00
10720;BME280;5411;58.386;15.560;2023-03-14T03:20:30;96437.81;;;8.40;100.00
10720;BME280;5411;58.386;15.560;2023-03-14T03:22:58;96439.75;;;8.34;100.00
10720;BME280;5411;58.386;15.560;2023-03-14T03:25:27;96435.78;;;8.32;100.00
10720;BME280;5411;58.386;15.560;2023-03-14T03:27:55;96440.06;;;8.28;100.00
10720;BME280;5411;58.386;15.560;2023-03-14T03:30:23;96438.47;;;8.27;100.00
10720;BME280;5411;58.386;15.560;2023-03-14T03:32:56;96453.16;;;8.24;100.00
10720;BME280;5411;58.386;15.560;2023-03-14T03:35:25;96455.59;;;8.20;100.00
10720;BME280;5411;58.386;15.560;2023-03-14T03:37:53;96452.97;;;8.15;100.00
10720;BME280;5411;58.386;15.560;2023-03-14T03:40:21;96456.50;;;8.11;100.00
10720;BME280;5411;58.386;15.560;2023-03-14T03:42:49;96453.91;;;8.06;100.00
10720;BME280;5411;58.386;15.560;2023-03-14T03:45:18;96468.31;;;8.00;100.00
10720;BME280;5411;58.386;15.560;2023-03-14T03:47:46;96466.53;;;7.95;100.00
10720;BME280;5411;58.386;15.560;2023-03-14T03:50:16;96473.75;;;7.90;100.00
10720;BME280;5411;58.386;15.560;2023-03-14T03:52:44;96478.06;;;7.85;100.00
10720;BME280;5411;58.386;15.560;2023-03-14T03:55:13;96475.44;;;7.80;100.00
10720;BME280;5411;58.386;15.560;2023-03-14T03:57:41;96485.56;;;7.78;100.00
10720;BME280;5411;58.386;15.560;2023-03-14T04:00:10;96481.59;;;7.76;100.00
10720;BME280;5411;58.386;15.560;2023-03-14T04:02:39;96482.16;;;7.73;100.00
10720;BME280;5411;58.386;15.560;2023-03-14T04:05:09;96484.09;;;7.67;100.00
10720;BME280;5411;58.386;15.560;2023-03-14T04:07:39;96481.72;;;7.66;100.00
10720;BME280;5411;58.386;15.560;2023-03-14T04:10:08;96486.00;;;7.62;100.00
10720;BME280;5411;58.386;15.560;2023-03-14T04:12:36;96504.09;;;7.60;100.00
10720;BME280;5411;58.386;15.560;2023-03-14T04:15:07;96510.00;;;7.57;100.00
10720;BME280;5411;58.386;15.560;2023-03-14T04:17:35;96518.25;;;7.55;100.00
10720;BME280;5411;58.386;15.560;2023-03-14T04:20:04;96518.25;;;7.55;100.00
10720;BME280;5411;58.386;15.560;2023-03-14T04:22:34;96520.38;;;7.53;100.00
10720;BME280;5411;58.386;15.560;2023-03-14T04:25:05;96521.44;;;7.52;100.00
10720;BME280;5411;58.386;15.560;2023-03-14T04:27:33;96524.13;;;7.52;100.00
10720;BME280;5411;58.386;15.560;2023-03-14T04:30:03;96525.44;;;7.49;100.00
10720;BME280;5411;58.386;15.560;2023-03-14T04:32:31;96536.09;;;7.49;100.00
10720;BME280;5411;58.386;15.560;2023-03-14T04:34:59;96541.69;;;7.48;100.00
10720;BME280;5411;58.386;15.560;2023-03-14T04:37:28;96538.22;;;7.47;100.00
10720;BME280;5411;58.386;15.560;2023-03-14T04:39:56;96539.59;;;7.45;100.00
10720;BME280;5411;58.386;15.560;2023-03-14T04:42:25;96536.63;;;7.46;100.00
10720;BME280;5411;58.386;15.560;2023-03-14T04:44:54;96546.47;;;7.46;100.00
10720;BME280;5411;58.386;15.560;2023-03-14T04:47:23;96548.66;;;7.44;100.00
10720;BME280;5411;58.386;15.560;2023-03-14T04:49:51;96563.00;;;7.43;100.00
10720;BME280;5411;58.386;15.560;2023-03-14T04:52:20;96565.94;;;7.41;100.00
10720;BME280;5411;58.386;15.560;2023-03-14T04:54:49;96569.41;;;7.37;100.00
10720;BME280;5411;58.386;15.560;2023-03-14T04:57:17;96585.91;;;7.39;100.00
10720;BME280;5411;58.386;15.560;2023-03-14T04:59:47;96590.97;;;7.35;100.00
10720;BME280;5411;58.386;15.560;2023-03-14T05:02:15;96589.91;;;7.36;100.00
10720;BME280;5411;58.386;15.560;2023-03-14T05:04:43;96589.38;;;7.34;100.00
10720;BME280;5411;58.386;15.560;2023-03-14T05:07:11;96591.53;;;7.32;100.00
10720;BME280;5411;58.386;15.560;2023-03-14T05:09:40;96586.50;;;7.31;100.00
10720;BME280;5411;58.386;15.560;2023-03-14T05:12:10;96589.69;;;7.28;100.00
10720;BME280;5411;58.386;15.560;2023-03-14T05:14:38;96598.22;;;7.25;100.00
10720;BME280;5411;58.386;15.560;2023-03-14T05:17:09;96605.41;;;7.19;100.00
10720;BME280;5411;58.386;15.560;2023-03-14T05:19:38;96612.09;;;7.17;100.00
10720;BME280;5411;58.386;15.560;2023-03-14T05:22:06;96605.72;;;7.12;100.00
10720;BME280;5411;58.386;15.560;2023-03-14T05:24:35;96611.84;;;7.08;100.00
10720;BME280;5411;58.386;15.560;2023-03-14T05:27:04;96609.19;;;7.08;100.00
10720;BME280;5411;58.386;15.560;2023-03-14T05:29:32;96614.78;;;7.06;100.00
10720;BME280;5411;58.386;15.560;2023-03-14T05:32:00;96611.88;;;7.03;100.00
10720;BME280;5411;58.386;15.560;2023-03-14T05:34:30;96620.66;;;7.03;100.00
10720;BME280;5411;58.386;15.560;2023-03-14T05:36:59;96616.16;;;6.99;100.00
10720;BME280;5411;58.386;15.560;2023-03-14T05:39:27;96630.50;;;6.98;100.00
10720;BME280;5411;58.386;15.560;2023-03-14T05:41:55;96622.78;;;6.96;100.00
10720;BME280;5411;58.386;15.560;2023-03-14T05:44:24;96636.88;;;6.97;100.00
10720;BME280;5411;58.386;15.560;2023-03-14T05:46:52;96637.16;;;6.95;100.00
10720;BME280;5411;58.386;15.560;2023-03-14T05:49:20;96648.03;;;6.94;100.00
10720;BME280;5411;58.386;15.560;2023-03-14T05:51:51;96649.41;;;6.91;100.00
10720;BME280;5411;58.386;15.560;2023-03-14T05:54:19;96656.56;;;6.91;100.00
10720;BME280;5411;58.386;15.560;2023-03-14T05:56:47;96668.81;;;6.92;100.00
10720;BME280;5411;58.386;15.560;2023-03-14T05:59:16;96671.16;;;6.93;100.00
10720;BME280;5411;58.386;15.560;2023-03-14T06:01:44;96679.44;;;6.92;100.00
10720;BME280;5411;58.386;15.560;2023-03-14T06:04:12;96672.25;;;6.92;100.00
10720;BME280;5411;58.386;15.560;2023-03-14T06:06:41;96671.19;;;6.88;100.00
10720;BME280;5411;58.386;15.560;2023-03-14T06:09:15;96679.97;;;6.89;100.00
10720;BME280;5411;58.386;15.560;2023-03-14T06:11:47;96681.56;;;6.90;100.00
10720;BME280;5411;58.386;15.560;2023-03-14T06:14:17;96682.88;;;6.87;100.00
10720;BME280;5411;58.386;15.560;2023-03-14T06:16:45;96684.47;;;6.83;100.00
10720;BME280;5411;58.386;15.560;2023-03-14T06:19:14;96691.41;;;6.79;100.00
10720;BME280;5411;58.386;15.560;2023-03-14T06:21:43;96695.66;;;6.75;100.00
10720;BME280;5411;58.386;15.560;2023-03-14T06:24:13;96697.25;;;6.71;100.00
10720;BME280;5411;58.386;15.560;2023-03-14T06:26:41;96703.38;;;6.66;100.00
10720;BME280;5411;58.386;15.560;2023-03-14T06:29:09;96710.56;;;6.61;100.00
10720;BME280;5411;58.386;15.560;2023-03-14T06:31:42;96725.69;;;6.60;100.00
10720;BME280;5411;58.386;15.560;2023-03-14T06:34:11;96724.09;;;6.59;100.00
10720;BME280;5411;58.386;15.560;2023-03-14T06:36:40;96725.16;;;6.53;100.00
10720;BME280;5411;58.386;15.560;2023-03-14T06:39:08;96734.47;;;6.46;100.00
10720;BME280;5411;58.386;15.560;2023-03-14T06:41:40;96740.56;;;6.36;100.00
10720;BME280;5411;58.386;15.560;2023-03-14T06:44:08;96747.19;;;6.28;100.00
10720;BME280;5411;58.386;15.560;2023-03-14T06:46:37;96748.28;;;6.22;100.00
10720;BME280;5411;58.386;15.560;2023-03-14T06:49:05;96767.63;;;6.18;100.00
10720;BME280;5411;58.386;15.560;2023-03-14T06:51:35;96766.28;;;6.15;100.00
10720;BME280;5411;58.386;15.560;2023-03-14T06:54:03;96772.41;;;6.11;100.00
10720;BME280;5411;58.386;15.560;2023-03-14T06:56:32;96778.75;;;6.04;100.00
10720;BME280;5411;58.386;15.560;2023-03-14T06:59:02;96776.63;;;6.01;100.00
10720;BME280;5411;58.386;15.560;2023-03-14T07:01:30;96775.03;;;6.00;100.00
10720;BME280;5411;58.386;15.560;2023-03-14T07:03:59;96777.16;;;6.03;100.00
10720;BME280;5411;58.386;15.560;2023-03-14T07:06:27;96790.19;;;6.10;100.00
10720;BME280;5411;58.386;15.560;2023-03-14T07:08:59;96790.19;;;6.10;100.00
10720;BME280;5411;58.386;15.560;2023-03-14T07:11:29;96789.38;;;6.10;100.00
10720;BME280;5411;58.386;15.560;2023-03-14T07:13:57;96798.13;;;6.15;100.00
10720;BME280;5411;58.386;15.560;2023-03-14T07:16:27;96797.06;;;6.16;100.00
10720;BME280;5411;58.386;15.560;2023-03-14T07:18:58;96799.19;;;6.14;100.00
10720;BME280;5411;58.386;15.560;2023-03-14T07:21:26;96802.66;;;6.15;100.00
10720;BME280;5411;58.386;15.560;2023-03-14T07:23:54;96806.63;;;6.17;100.00
10720;BME280;5411;58.386;15.560;2023-03-14T07:26:23;96808.22;;;6.13;100.00
10720;BME280;5411;58.386;15.560;2023-03-14T07:28:51;96803.97;;;6.07;100.00
10720;BME280;5411;58.386;15.560;2023-03-14T07:31:20;96808.72;;;6.05;100.00
10720;BME280;5411;58.386;15.560;2023-03-14T07:33:51;96817.75;;;5.99;100.00
10720;BME280;5411;58.386;15.560;2023-03-14T07:36:19;96822.25;;;5.98;100.00
10720;BME280;5411;58.386;15.560;2023-03-14T07:38:47;96817.47;;;5.95;100.00
10720;BME280;5411;58.386;15.560;2023-03-14T07:41:16;96823.56;;;5.91;100.00
10720;BME280;5411;58.386;15.560;2023-03-14T07:43:44;96825.94;;;5.92;100.00
10720;BME280;5411;58.386;15.560;2023-03-14T07:46:12;96830.19;;;5.93;100.00
10720;BME280;5411;58.386;15.560;2023-03-14T07:48:41;96826.22;;;5.96;100.00
10720;BME280;5411;58.386;15.560;2023-03-14T07:51:10;96822.78;;;5.95;100.00
10720;BME280;5411;58.386;15.560;2023-03-14T07:53:39;96817.22;;;5.97;100.00
10720;BME280;5411;58.386;15.560;2023-03-14T07:56:07;96818.28;;;6.01;100.00
10720;BME280;5411;58.386;15.560;2023-03-14T07:58:44;96819.63;;;6.08;100.00
10720;BME280;5411;58.386;15.560;2023-03-14T08:01:15;96818.56;;;6.15;100.00
10720;BME280;5411;58.386;15.560;2023-03-14T08:03:43;96815.16;;;6.24;100.00
10720;BME280;5411;58.386;15.560;2023-03-14T08:06:14;96814.63;;;6.32;100.00
10720;BME280;5411;58.386;15.560;2023-03-14T08:08:43;96813.59;;;6.38;100.00
10720;BME280;5411;58.386;15.560;2023-03-14T08:11:12;96810.38;;;6.41;100.00
10720;BME280;5411;58.386;15.560;2023-03-14T08:13:45;96822.34;;;6.44;100.00
10720;BME280;5411;58.386;15.560;2023-03-14T08:16:16;96819.16;;;6.42;100.00
10720;BME280;5411;58.386;15.560;2023-03-14T08:18:45;96816.75;;;6.40;100.00
10720;BME280;5411;58.386;15.560;2023-03-14T08:21:15;96818.09;;;6.38;100.00
10720;BME280;5411;58.386;15.560;2023-03-14T08:23:43;96828.44;;;6.34;100.00
10720;BME280;5411;58.386;15.560;2023-03-14T08:26:12;96825.78;;;6.34;100.00
10720;BME280;5411;58.386;15.560;2023-03-14T08:28:40;96835.34;;;6.35;100.00
10720;BME280;5411;58.386;15.560;2023-03-14T08:31:09;96831.91;;;6.35;100.00
10720;BME280;5411;58.386;15.560;2023-03-14T08:33:37;96832.69;;;6.35;100.00
10720;BME280;5411;58.386;15.560;2023-03-14T08:36:07;96826.06;;;6.38;100.00
10720;BME280;5411;58.386;15.560;2023-03-14T08:38:36;96826.31;;;6.41;100.00
10720;BME280;5411;58.386;15.560;2023-03-14T08:41:05;96837.22;;;6.45;100.00
10720;BME280;5411;58.386;15.560;2023-03-14T08:43:36;96835.09;;;6.47;100.00
10720;BME280;5411;58.386;15.560;2023-03-14T08:46:05;96832.72;;;6.51;100.00
10720;BME280;5411;58.386;15.560;2023-03-14T08:48:33;96840.13;;;6.54;100.00
10720;BME280;5411;58.386;15.560;2023-03-14T08:51:05;96838.81;;;6.56;100.00
10720;BME280;5411;58.386;15.560;2023-03-14T08:53:34;96840.16;;;6.59;100.00
10720;BME280;5411;58.386;15.560;2023-03-14T08:56:06;96844.41;;;6.65;100.00
10720;BME280;5411;58.386;15.560;2023-03-14T08:58:36;96839.38;;;6.73;100.00
10720;BME280;5411;58.386;15.560;2023-03-14T09:01:07;96852.13;;;6.87;100.00
10720;BME280;5411;58.386;15.560;2023-03-14T09:03:36;96850.28;;;6.92;100.00
10720;BME280;5411;58.386;15.560;2023-03-14T09:06:05;96852.13;;;7.02;100.00
10720;BME280;5411;58.386;15.560;2023-03-14T09:08:36;96848.16;;;7.04;100.00
10720;BME280;5411;58.386;15.560;2023-03-14T09:11:08;96851.84;;;7.13;100.00
10720;BME280;5411;58.386;15.560;2023-03-14T09:13:57;96855.56;;;7.18;100.00
10720;BME280;5411;58.386;15.560;2023-03-14T09:16:25;96852.91;;;7.07;100.00
10720;BME280;5411;58.386;15.560;2023-03-14T09:18:54;96859.81;;;7.08;100.00
10720;BME280;5411;58.386;15.560;2023-03-14T09:21:24;96871.50;;;7.07;100.00
10720;BME280;5411;58.386;15.560;2023-03-14T09:23:52;96866.75;;;6.99;100.00
10720;BME280;5411;58.386;15.560;2023-03-14T09:26:22;96873.63;;;6.95;100.00
10720;BME280;5411;58.386;15.560;2023-03-14T09:28:53;96879.78;;;6.91;100.00
10720;BME280;5411;58.386;15.560;2023-03-14T09:31:24;96885.09;;;6.91;100.00
10720;BME280;5411;58.386;15.560;2023-03-14T09:33:52;96877.91;;;6.91;100.00
10720;BME280;5411;58.386;15.560;2023-03-14T09:36:20;96893.84;;;6.91;100.00
10720;BME280;5411;58.386;15.560;2023-03-14T09:38:48;96890.41;;;6.91;100.00
10720;BME280;5411;58.386;15.560;2023-03-14T09:41:23;96902.34;;;6.88;100.00
10720;BME280;5411;58.386;15.560;2023-03-14T09:43:59;96900.75;;;6.92;100.00
10720;BME280;5411;58.386;15.560;2023-03-14T09:46:29;96904.72;;;6.95;100.00
10720;BME280;5411;58.386;15.560;2023-03-14T09:48:59;96906.06;;;6.97;100.00
10720;BME280;5411;58.386;15.560;2023-03-14T09:51:27;96908.97;;;6.96;100.00
10720;BME280;5411;58.386;15.560;2023-03-14T09:53:56;96914.03;;;6.87;100.00
10720;BME280;5411;58.386;15.560;2023-03-14T09:56:28;96903.41;;;6.87;100.00
10720;BME280;5411;58.386;15.560;2023-03-14T09:59:02;96918.28;;;6.88;100.00
10720;BME280;5411;58.386;15.560;2023-03-14T10:01:32;96911.09;;;6.84;100.00
10720;BME280;5411;58.386;15.560;2023-03-14T10:04:05;96911.38;;;6.77;100.00
10720;BME280;5411;58.386;15.560;2023-03-14T10:06:34;96908.16;;;6.70;100.00
10720;BME280;5411;58.386;15.560;2023-03-14T10:09:03;96912.38;;;6.66;100.00
10720;BME280;5411;58.386;15.560;2023-03-14T10:11:34;96918.25;;;6.63;100.00
10720;BME280;5411;58.386;15.560;2023-03-14T10:14:30;96916.66;;;6.62;100.00
10720;BME280;5411;58.386;15.560;2023-03-14T10:17:06;96921.97;;;6.67;100.00
10720;BME280;5411;58.386;15.560;2023-03-14T10:19:36;96931.25;;;6.69;100.00
10720;BME280;5411;58.386;15.560;2023-03-14T10:22:05;96931.25;;;6.69;100.00
10720;BME280;5411;58.386;15.560;2023-03-14T10:24:35;96935.25;;;6.72;100.00
10720;BME280;5411;58.386;15.560;2023-03-14T10:27:06;96932.31;;;6.68;100.00
10720;BME280;5411;58.386;15.560;2023-03-14T10:29:52;96938.72;;;6.72;100.00
10720;BME280;5411;58.386;15.560;2023-03-14T10:32:47;96943.25;;;6.77;100.00
10720;BME280;5411;58.386;15.560;2023-03-14T10:35:21;96948.56;;;6.82;100.00
10720;BME280;5411;58.386;15.560;2023-03-14T10:37:53;96950.97;;;6.89;100.00
10720;BME280;5411;58.386;15.560;2023-03-14T10:40:27;96957.88;;;6.95;100.00
10720;BME280;5411;58.386;15.560;2023-03-14T10:42:59;96959.72;;;6.94;100.00
10720;BME280;5411;58.386;15.560;2023-03-14T10:45:31;96964.00;;;6.90;100.00
10720;BME280;5411;58.386;15.560;2023-03-14T10:48:18;96959.47;;;6.91;100.00
10720;BME280;5411;58.386;15.560;2023-03-14T10:51:03;96961.31;;;6.95;100.00
10720;BME280;5411;58.386;15.560;2023-03-14T10:53:43;96962.69;;;7.03;100.00
10720;BME280;5411;58.386;15.560;2023-03-14T10:56:12;96960.03;;;7.13;100.00
10720;BME280;5411;58.386;15.560;2023-03-14T10:58:44;96961.38;;;7.31;100.00
10720;BME280;5411;58.386;15.560;2023-03-14T11:01:25;96968.56;;;7.45;100.00
10720;BME280;5411;58.386;15.560;2023-03-14T11:03:58;96969.06;;;7.53;100.00
10720;BME280;5411;58.386;15.560;2023-03-14T11:06:36;96974.09;;;7.59;100.00
10720;BME280;5411;58.386;15.560;2023-03-14T11:09:13;96978.38;;;7.60;100.00
10720;BME280;5411;58.386;15.560;2023-03-14T11:11:47;96983.16;;;7.68;100.00
10720;BME280;5411;58.386;15.560;2023-03-14T11:14:23;96982.09;;;7.69;100.00
10720;BME280;5411;58.386;15.560;2023-03-14T11:16:57;96990.63;;;7.56;100.00
10720;BME280;5411;58.386;15.560;2023-03-14T11:19:48;97002.59;;;7.48;100.00
10720;BME280;5411;58.386;15.560;2023-03-14T11:22:23;97012.97;;;7.45;100.00
10720;BME280;5411;58.386;15.560;2023-03-14T11:25:02;97020.69;;;7.41;100.00
10720;BME280;5411;58.386;15.560;2023-03-14T11:27:41;97005.53;;;7.32;100.00
10720;BME280;5411;58.386;15.560;2023-03-14T11:30:19;97013.50;;;7.32;100.00
10720;BME280;5411;58.386;15.560;2023-03-14T11:32:52;97011.63;;;7.32;100.00
10720;BME280;5411;58.386;15.560;2023-03-14T11:35:26;97021.44;;;7.22;100.00
10720;BME280;5411;58.386;15.560;2023-03-14T11:38:18;97025.94;;;7.11;100.00
10720;BME280;5411;58.386;15.560;2023-03-14T11:40:48;97033.38;;;7.04;100.00
10720;BME280;5411;58.386;15.560;2023-03-14T11:43:23;97032.56;;;6.98;100.00
10720;BME280;5411;58.386;15.560;2023-03-14T11:46:01;97027.47;;;6.87;100.00
10720;BME280;5411;58.386;15.560;2023-03-14T11:48:37;97033.28;;;6.73;100.00
10720;BME280;5411;58.386;15.560;2023-03-14T11:51:12;97037.78;;;6.63;100.00
10720;BME280;5411;58.386;15.560;2023-03-14T11:53:48;97040.94;;;6.60;100.00
10720;BME280;5411;58.386;15.560;2023-03-14T11:56:25;97046.50;;;6.58;100.00
10720;BME280;5411;58.386;15.560;2023-03-14T11:59:01;97051.78;;;6.53;100.00
10720;BME280;5411;58.386;15.560;2023-03-14T12:01:42;97047.00;;;6.55;100.00
10720;BME280;5411;58.386;15.560;2023-03-14T12:04:21;97044.91;;;6.57;100.00
10720;BME280;5411;58.386;15.560;2023-03-14T12:06:53;97058.19;;;6.57;100.00
10720;BME280;5411;58.386;15.560;2023-03-14T12:09:25;97050.19;;;6.47;100.00
10720;BME280;5411;58.386;15.560;2023-03-14T12:11:55;97049.63;;;6.45;100.00
10720;BME280;5411;58.386;15.560;2023-03-14T12:14:26;97051.22;;;6.46;100.00
10720;BME280;5411;58.386;15.560;2023-03-14T12:16:58;97057.34;;;6.47;100.00
10720;BME280;5411;58.386;15.560;2023-03-14T12:19:33;97054.69;;;6.47;100.00
10720;BME280;5411;58.386;15.560;2023-03-14T12:22:24;97062.66;;;6.47;100.00
10720;BME280;5411;58.386;15.560;2023-03-14T12:24:57;97061.31;;;6.44;100.00
10720;BME280;5411;58.386;15.560;2023-03-14T12:27:46;97059.19;;;6.46;100.00
10720;BME280;5411;58.386;15.560;2023-03-14T12:30:18;97057.09;;;6.48;100.00
10720;BME280;5411;58.386;15.560;2023-03-14T12:36:03;97070.06;;;6.44;100.00
10720;BME280;5411;58.386;15.560;2023-03-14T12:38:45;97067.97;;;6.47;100.00
10720;BME280;5411;58.386;15.560;2023-03-14T12:41:17;97066.66;;;6.54;100.00
10720;BME280;5411;58.386;15.560;2023-03-14T12:43:48;97065.91;;;6.59;100.00
10720;BME280;5411;58.386;15.560;2023-03-14T12:46:22;97073.59;;;6.60;100.00
10720;BME280;5411;58.386;15.560;2023-03-14T12:49:03;97075.22;;;6.61;100.00
10720;BME280;5411;58.386;15.560;2023-03-14T12:51:37;97074.41;;;6.66;100.00
10720;BME280;5411;58.386;15.560;2023-03-14T12:54:24;97078.69;;;6.72;100.00
10720;BME280;5411;58.386;15.560;2023-03-14T12:57:06;97089.88;;;6.74;100.00
10720;BME280;5411;58.386;15.560;2023-03-14T12:59:38;97084.78;;;6.62;100.00
10720;BME280;5411;58.386;15.560;2023-03-14T13:02:36;97094.56;;;6.52;100.00
10720;BME280;5411;58.386;15.560;2023-03-14T13:05:16;97090.31;;;6.56;100.00
10720;BME280;5411;58.386;15.560;2023-03-14T13:08:09;97089.78;;;6.59;100.00
10720;BME280;5411;58.386;15.560;2023-03-14T13:10:41;97097.22;;;6.57;100.00
10720;BME280;5411;58.386;15.560;2023-03-14T13:13:19;97097.47;;;6.50;100.00
10720;BME280;5411;58.386;15.560;2023-03-14T13:15:49;97101.88;;;6.39;100.00
10720;BME280;5411;58.386;15.560;2023-03-14T13:18:28;97108.19;;;6.23;100.00
10720;BME280;5411;58.386;15.560;2023-03-14T13:21:01;97114.75;;;6.16;100.00
10720;BME280;5411;58.386;15.560;2023-03-14T13:23:34;97108.31;;;6.06;100.00
10720;BME280;5411;58.386;15.560;2023-03-14T13:26:09;97108.81;;;6.03;100.00
10720;BME280;5411;58.386;15.560;2023-03-14T13:28:39;97121.53;;;6.01;100.00